Time;durP1;ratioP1;P1;durP2;ratioP2;P2;SDS_P1;SDS_P2;PMS_P1;PMS_P2;Temp;Humidity;BMP_temperature;BMP_pressure;BME280_temperature;BME280_humidity;BME280_pressure;Samples;Min_cycle;Max_cycle;Signal;HPM_P1;HPM_P2
2021/09/03 00:00:19;;;;;;;25.60;14.82;;;;;;;12.86;100.00;102452.78;2597159;36;20042;-67
2021/09/03 00:02:47;;;;;;;26.75;15.65;;;;;;;12.80;100.00;102464.88;2598566;36;20035;-68
2021/09/03 00:05:20;;;;;;;28.90;16.10;;;;;;;12.83;100.00;102457.53;2597901;36;20573;-68
2021/09/03 00:07:50;;;;;;;28.70;16.00;;;;;;;12.77;100.00;102450.75;2603272;31;20137;-69
2021/09/03 00:10:20;;;;;;;25.77;15.35;;;;;;;12.78;100.00;102457.88;2607643;36;20126;-68
2021/09/03 00:12:51;;;;;;;29.08;16.33;;;;;;;12.76;100.00;102451.72;2600888;36;20527;-67
2021/09/03 00:15:19;;;;;;;30.10;16.25;;;;;;;12.72;100.00;102458.31;2602261;36;20035;-68
2021/09/03 00:17:48;;;;;;;29.42;15.73;;;;;;;12.73;100.00;102449.22;2604375;36;20174;-70
2021/09/03 00:20:19;;;;;;;35.35;17.15;;;;;;;12.82;100.00;102453.97;2602877;36;20514;-67
2021/09/03 00:22:47;;;;;;;27.58;15.57;;;;;;;12.75;100.00;102449.97;2600736;36;20249;-69
2021/09/03 00:25:16;;;;;;;27.90;15.95;;;;;;;12.70;100.00;102452.16;2603438;36;20535;-68
2021/09/03 00:27:44;;;;;;;30.98;16.58;;;;;;;12.71;100.00;102448.50;2600647;36;20118;-71
2021/09/03 00:30:14;;;;;;;29.00;17.03;;;;;;;12.68;100.00;102437.91;2607141;31;20034;-67
2021/09/03 00:32:42;;;;;;;32.78;18.13;;;;;;;12.68;100.00;102437.91;2609330;36;20034;-67
2021/09/03 00:35:12;;;;;;;30.13;16.93;;;;;;;12.72;100.00;102434.88;2607648;36;20029;-68
2021/09/03 00:37:43;;;;;;;33.97;16.50;;;;;;;12.70;100.00;102435.94;2599435;36;22403;-68
2021/09/03 00:40:12;;;;;;;32.45;16.77;;;;;;;12.71;100.00;102437.69;2605083;36;20122;-68
2021/09/03 00:42:40;;;;;;;27.88;16.85;;;;;;;12.66;100.00;102429.03;2607337;36;20137;-68
2021/09/03 00:45:10;;;;;;;31.90;18.27;;;;;;;12.60;100.00;102425.81;2600306;36;20529;-68
2021/09/03 00:47:38;;;;;;;34.20;17.55;;;;;;;12.61;100.00;102438.34;2604170;36;20134;-71
2021/09/03 00:50:08;;;;;;;35.00;17.37;;;;;;;12.67;100.00;102438.88;2607424;36;20483;-67
2021/09/03 00:52:37;;;;;;;30.23;16.92;;;;;;;12.60;100.00;102444.72;2601423;36;20439;-68
2021/09/03 00:55:10;;;;;;;31.90;17.38;;;;;;;12.53;100.00;102432.63;2602759;36;20034;-68
2021/09/03 00:57:38;;;;;;;32.30;18.23;;;;;;;12.49;100.00;102433.81;2604170;36;20550;-68
2021/09/03 01:00:08;;;;;;;32.55;17.73;;;;;;;12.48;100.00;102432.09;2605726;36;20161;-66
2021/09/03 01:02:37;;;;;;;29.95;16.98;;;;;;;12.51;100.00;102437.25;2600811;36;20038;-67
2021/09/03 01:05:07;;;;;;;32.17;18.05;;;;;;;12.46;100.00;102427.78;2603176;36;20165;-68
2021/09/03 01:10:09;;;;;;;36.40;18.33;;;;;;;12.38;100.00;102437.31;2606489;36;20569;-72
2021/09/03 01:12:38;;;;;;;31.40;17.48;;;;;;;12.32;100.00;102426.06;2602463;31;20149;-69
2021/09/03 01:15:07;;;;;;;32.55;17.30;;;;;;;12.34;100.00;102418.72;2601268;36;20574;-67
2021/09/03 01:17:37;;;;;;;35.90;18.42;;;;;;;12.31;100.00;102419.81;2600973;36;20122;-69
2021/09/03 01:20:07;;;;;;;34.95;18.90;;;;;;;12.30;100.00;102417.22;2599548;31;20536;-68
2021/09/03 01:22:38;;;;;;;44.70;19.40;;;;;;;12.34;100.00;102416.88;2606592;36;20035;-68
2021/09/03 01:25:08;;;;;;;30.45;17.65;;;;;;;12.32;100.00;102410.72;2602887;36;20134;-69
2021/09/03 01:27:36;;;;;;;32.95;19.25;;;;;;;12.30;100.00;102411.81;2611429;31;20069;-71
2021/09/03 01:30:05;;;;;;;35.72;19.10;;;;;;;12.26;100.00;102398.53;2608567;31;20030;-69
2021/09/03 01:32:33;;;;;;;;;;;;;;;12.29;100.00;102402.84;2603717;36;20165;-68
2021/09/03 01:35:01;;;;;;;33.50;17.67;;;;;;;12.24;100.00;102400.47;2604846;36;20041;-69
2021/09/03 01:37:30;;;;;;;31.40;18.27;;;;;;;12.19;100.00;102402.66;2608339;36;20154;-68
2021/09/03 01:40:00;;;;;;;36.70;18.23;;;;;;;12.19;100.00;102399.94;2601176;36;20646;-68
2021/09/03 01:42:29;;;;;;;36.45;19.02;;;;;;;12.25;100.00;102394.09;2603727;36;20126;-68
2021/09/03 01:44:57;;;;;;;38.67;18.97;;;;;;;12.27;100.00;102397.53;2604567;36;20042;-69
2021/09/03 01:47:25;;;;;;;34.35;18.92;;;;;;;12.22;100.00;102398.84;2600166;36;20398;-71
2021/09/03 01:49:54;;;;;;;36.85;19.25;;;;;;;12.17;100.00;102401.03;2604255;36;20122;-68
2021/09/03 01:52:23;;;;;;;33.83;19.42;;;;;;;12.20;100.00;102400.81;2605147;36;20026;-67
2021/09/03 01:57:33;;;;;;;36.33;19.30;;;;;;;12.18;100.00;102395.50;2610247;36;20041;-70
2021/09/03 02:00:01;;;;;;;36.10;19.95;;;;;;;12.15;100.00;102402.97;2614402;31;20134;-68
2021/09/03 02:02:30;;;;;;;40.25;19.55;;;;;;;12.16;100.00;102399.28;2612486;31;20034;-70
2021/09/03 02:04:58;;;;;;;37.97;19.85;;;;;;;12.12;100.00;102404.06;2614371;36;20061;-68
2021/09/03 02:07:26;;;;;;;44.95;20.45;;;;;;;12.12;100.00;102393.25;2614524;36;20130;-71
2021/09/03 02:09:54;;;;;;;36.72;19.48;;;;;;;12.13;100.00;102400.38;2612097;36;20165;-68
2021/09/03 02:12:22;;;;;;;36.17;19.40;;;;;;;12.17;100.00;102390.22;2600460;36;20138;-70
2021/09/03 02:14:53;;;;;;;37.75;19.88;;;;;;;12.16;100.00;102388.50;2600503;36;20041;-68
2021/09/03 02:17:22;;;;;;;37.67;19.92;;;;;;;12.16;100.00;102388.50;2601634;36;20074;-68
2021/09/03 02:19:50;;;;;;;35.57;19.23;;;;;;;12.13;100.00;102383.31;2598206;36;20827;-67
2021/09/03 02:22:18;;;;;;;38.17;20.42;;;;;;;12.08;100.00;102370.16;2598326;36;20026;-67
2021/09/03 02:24:46;;;;;;;42.08;21.38;;;;;;;12.09;100.00;102372.72;2598994;31;20184;-68
2021/09/03 02:27:15;;;;;;;36.72;19.45;;;;;;;12.12;100.00;102373.47;2597678;36;20042;-70
2021/09/03 02:29:43;;;;;;;38.22;19.63;;;;;;;12.11;100.00;102372.63;2599432;36;20065;-69
2021/09/03 02:32:16;;;;;;;38.45;18.60;;;;;;;12.08;100.00;102365.59;2597662;36;20129;-68
2021/09/03 02:34:45;;;;;;;37.58;19.63;;;;;;;12.07;100.00;102372.00;2597544;36;20080;-68
2021/09/03 02:37:13;;;;;;;41.10;19.60;;;;;;;12.10;100.00;102373.59;2600669;36;20080;-67
2021/09/03 02:39:41;;;;;;;37.47;19.95;;;;;;;12.04;100.00;102365.94;2601403;36;20125;-70
2021/09/03 02:42:10;;;;;;;38.85;19.92;;;;;;;12.00;100.00;102370.69;2599524;36;20034;-67
2021/09/03 02:44:38;;;;;;;39.03;20.27;;;;;;;12.06;100.00;102372.97;2597728;36;20428;-71
2021/09/03 02:47:06;;;;;;;33.72;18.75;;;;;;;12.11;100.00;102358.28;2597298;36;20084;-70
2021/09/03 02:49:38;;;;;;;35.85;19.80;;;;;;;12.07;100.00;102360.31;2599846;36;20030;-68
2021/09/03 02:52:06;;;;;;;40.53;19.75;;;;;;;12.06;100.00;102353.22;2597912;36;20038;-69
2021/09/03 02:54:35;;;;;;;38.83;19.67;;;;;;;12.04;100.00;102352.44;2604428;36;20161;-70
2021/09/03 02:57:04;;;;;;;36.58;18.80;;;;;;;11.98;100.00;102351.03;2600813;36;20121;-68
2021/09/03 02:59:32;;;;;;;37.63;20.52;;;;;;;11.96;100.00;102354.84;2601915;36;20042;-68
2021/09/03 03:02:00;;;;;;;38.28;20.23;;;;;;;11.94;100.00;102352.25;2607611;36;20117;-72
2021/09/03 03:04:28;;;;;;;43.38;20.48;;;;;;;11.96;100.00;102352.13;2601785;36;20158;-69
2021/09/03 03:06:59;;;;;;;41.38;19.02;;;;;;;11.93;100.00;102353.22;2602237;36;20674;-67
2021/09/03 03:09:27;;;;;;;37.83;20.73;;;;;;;11.91;100.00;102355.09;2599393;36;20084;-67
2021/09/03 03:11:56;;;;;;;41.85;20.27;;;;;;;11.88;100.00;102347.22;2607149;31;20607;-68
2021/09/03 03:14:32;;;;;;;42.35;21.30;;;;;;;11.85;100.00;102348.31;2597141;36;20146;-67
2021/09/03 03:17:01;;;;;;;40.95;20.85;;;;;;;11.87;100.00;102350.91;2599233;31;20034;-67
2021/09/03 03:19:30;;;;;;;42.35;20.85;;;;;;;11.86;100.00;102343.78;2600865;36;20531;-70
2021/09/03 03:22:01;;;;;;;41.33;19.92;;;;;;;11.85;100.00;102342.94;2600675;36;20103;-69
2021/09/03 03:24:30;;;;;;;32.03;18.83;;;;;;;11.82;100.00;102336.88;2602043;36;20118;-66
2021/09/03 03:26:58;;;;;;;38.20;21.08;;;;;;;11.83;100.00;102334.06;2602688;36;20018;-67
2021/09/03 03:29:27;;;;;;;42.15;20.85;;;;;;;11.80;100.00;102328.03;2604689;36;20041;-71
2021/09/03 03:31:55;;;;;;;41.53;20.95;;;;;;;11.73;100.00;102332.97;2602575;36;20022;-67
2021/09/03 03:34:24;;;;;;;40.90;20.17;;;;;;;11.79;100.00;102329.84;2603159;36;20042;-67
2021/09/03 03:36:52;;;;;;;39.90;20.23;;;;;;;11.72;100.00;102325.88;2611786;36;20133;-68
2021/09/03 03:39:23;;;;;;;38.30;20.08;;;;;;;11.69;100.00;102320.69;2609826;36;20022;-68
2021/09/03 03:41:52;;;;;;;37.28;19.65;;;;;;;11.66;100.00;102326.28;2600635;36;21968;-67
2021/09/03 03:44:20;;;;;;;40.53;20.45;;;;;;;11.58;100.00;102314.19;2597863;36;20030;-68
2021/09/03 03:46:49;;;;;;;48.58;22.67;;;;;;;11.64;100.00;102314.75;2601761;36;20134;-68
2021/09/03 03:49:17;;;;;;;42.90;20.75;;;;;;;11.63;100.00;102311.22;2603030;36;20030;-67
2021/09/03 03:51:45;;;;;;;44.83;20.08;;;;;;;11.58;100.00;102314.19;2602178;36;20046;-70
2021/09/03 03:54:13;;;;;;;34.83;18.75;;;;;;;11.56;100.00;102310.75;2605372;36;20022;-67
2021/09/03 03:56:44;;;;;;;43.15;21.70;;;;;;;11.52;100.00;102313.78;2602378;36;20031;-69
2021/09/03 03:59:13;;;;;;;43.17;21.13;;;;;;;11.55;100.00;102303.63;2603495;31;20066;-67
2021/09/03 04:01:41;;;;;;;43.42;21.55;;;;;;;11.56;100.00;102304.53;2595963;36;20159;-71
2021/09/03 04:04:09;;;;;;;36.70;20.42;;;;;;;11.52;100.00;102311.09;2604771;36;20114;-67
2021/09/03 04:06:37;;;;;;;47.17;21.67;;;;;;;11.53;100.00;102318.22;2597049;36;20133;-68
2021/09/03 04:09:06;;;;;;;37.90;21.80;;;;;;;11.54;100.00;102310.03;2597139;36;20031;-67
2021/09/03 04:11:34;;;;;;;38.45;20.98;;;;;;;11.51;100.00;102307.53;2603485;36;20027;-68
2021/09/03 04:14:05;;;;;;;42.47;20.27;;;;;;;11.46;100.00;102309.69;2598356;36;20041;-68
2021/09/03 04:16:33;;;;;;;41.88;21.30;;;;;;;11.46;100.00;102304.28;2597493;36;20564;-67
2021/09/03 04:19:01;;;;;;;42.30;21.05;;;;;;;11.42;100.00;102294.69;2599177;36;20364;-70
2021/09/03 04:21:29;;;;;;;36.50;19.25;;;;;;;11.43;100.00;102293.72;2599047;36;20064;-68
2021/09/03 04:23:58;;;;;;;49.80;22.63;;;;;;;11.37;100.00;102294.16;2595969;36;20056;-70
2021/09/03 04:26:26;;;;;;;37.80;19.67;;;;;;;11.33;100.00;102292.63;2599489;31;20288;-70
2021/09/03 04:28:54;;;;;;;38.40;20.55;;;;;;;11.34;100.00;102294.34;2608156;36;20161;-69
2021/09/03 04:31:25;;;;;;;41.67;22.58;;;;;;;11.33;100.00;102296.16;2599106;36;20042;-68
2021/09/03 04:33:53;;;;;;;39.88;20.50;;;;;;;11.34;100.00;102288.97;2600463;36;20465;-67
2021/09/03 04:36:21;;;;;;;47.13;23.00;;;;;;;11.36;100.00;102289.72;2604020;36;20173;-68
2021/09/03 04:38:50;;;;;;;45.58;21.75;;;;;;;11.35;100.00;102296.94;2600493;36;20031;-68
2021/09/03 04:41:18;;;;;;;43.38;22.00;;;;;;;11.31;100.00;102305.34;2604985;31;20555;-68
2021/09/03 04:43:46;;;;;;;43.38;21.40;;;;;;;11.26;100.00;102299.41;2600480;36;20038;-68
2021/09/03 04:46:14;;;;;;;42.63;21.73;;;;;;;11.23;100.00;102297.78;2605044;36;20149;-70
2021/09/03 04:48:45;;;;;;;47.30;22.33;;;;;;;11.23;100.00;102297.78;2600199;36;20134;-71
2021/09/03 04:51:13;;;;;;;48.65;22.80;;;;;;;11.23;100.00;102303.16;2598328;36;20126;-69
2021/09/03 04:53:42;;;;;;;40.42;19.85;;;;;;;11.27;100.00;102303.84;2599212;36;20660;-69
2021/09/03 04:56:10;;;;;;;42.95;21.02;;;;;;;11.25;100.00;102305.75;2597190;36;20543;-71
2021/09/03 04:58:39;;;;;;;43.20;22.20;;;;;;;11.25;100.00;102289.59;2604060;36;20038;-68
2021/09/03 05:01:07;;;;;;;45.15;23.08;;;;;;;11.21;100.00;102307.81;2597546;36;20455;-70
2021/09/03 05:03:35;;;;;;;48.35;22.85;;;;;;;11.22;100.00;102301.47;2601597;36;20065;-68
2021/09/03 05:06:06;;;;;;;45.90;21.83;;;;;;;11.19;100.00;102297.13;2599226;36;21596;-68
2021/09/03 05:08:34;;;;;;;40.28;21.60;;;;;;;11.20;100.00;102298.88;2599319;36;20494;-69
2021/09/03 05:11:02;;;;;;;43.10;21.98;;;;;;;11.22;100.00;102302.31;2602101;36;20161;-71
2021/09/03 05:13:30;;;;;;;37.20;20.20;;;;;;;11.32;100.00;102296.28;2598804;36;20546;-69
2021/09/03 05:15:59;;;;;;;41.22;21.13;;;;;;;11.40;100.00;102299.31;2602616;36;20034;-70
2021/09/03 05:18:27;;;;;;;46.55;21.65;;;;;;;11.34;100.00;102288.97;2607991;31;20574;-70
2021/09/03 05:20:55;;;;;;;40.78;21.08;;;;;;;11.37;100.00;102304.94;2602496;36;20122;-68
2021/09/03 05:23:26;;;;;;;46.45;21.85;;;;;;;11.32;100.00;102297.16;2606352;36;20161;-70
2021/09/03 05:25:54;;;;;;;39.67;20.55;;;;;;;11.34;100.00;102299.75;2604674;36;20138;-68
2021/09/03 05:28:22;;;;;;;41.65;21.60;;;;;;;11.38;100.00;102293.16;2602533;36;20114;-71
2021/09/03 05:30:51;;;;;;;35.10;21.65;;;;;;;11.44;100.00;102292.75;2601341;31;20118;-68
2021/09/03 05:33:19;;;;;;;47.90;22.80;;;;;;;11.47;100.00;102306.03;2598094;36;20145;-71
2021/09/03 05:35:47;;;;;;;43.65;22.15;;;;;;;11.49;100.00;102298.66;2596754;36;20118;-69
2021/09/03 05:38:16;;;;;;;45.67;21.42;;;;;;;11.48;100.00;102306.88;2605925;36;20654;-69
2021/09/03 05:40:47;;;;;;;50.63;21.90;;;;;;;11.60;100.00;102305.16;2603215;36;20477;-67
2021/09/03 05:43:20;;;;;;;43.00;22.30;;;;;;;11.61;100.00;102301.50;2602169;36;20038;-70
2021/09/03 05:45:48;;;;;;;42.58;22.35;;;;;;;11.65;100.00;102301.16;2599832;36;20045;-68
2021/09/03 05:48:17;;;;;;;40.17;21.25;;;;;;;11.64;100.00;102301.28;2601997;36;20180;-68
2021/09/03 05:50:45;;;;;;;42.15;21.23;;;;;;;11.75;100.00;102306.78;2600460;36;20927;-67
2021/09/03 05:53:13;;;;;;;41.95;21.13;;;;;;;11.77;100.00;102302.13;2599277;36;20042;-68
2021/09/03 05:55:42;;;;;;;41.58;21.05;;;;;;;11.82;100.00;102293.72;2604840;36;20842;-68
2021/09/03 05:58:12;;;;;;;37.38;20.05;;;;;;;11.96;100.00;102290.06;2606569;36;20138;-71
2021/09/03 06:00:41;;;;;;;43.78;21.58;;;;;;;11.98;100.00;102294.38;2601947;36;20030;-69
2021/09/03 06:03:09;;;;;;;39.25;20.02;;;;;;;12.02;100.00;102289.63;2603515;36;20085;-71
2021/09/03 06:05:37;;;;;;;42.63;21.20;;;;;;;12.06;100.00;102278.50;2599205;36;20517;-68
2021/09/03 06:08:06;;;;;;;39.90;20.17;;;;;;;12.13;100.00;102280.75;2597626;36;20614;-67
2021/09/03 06:10:34;;;;;;;38.60;22.00;;;;;;;12.14;100.00;102286.03;2596580;36;21575;-68
2021/09/03 06:13:03;;;;;;;42.40;21.07;;;;;;;12.21;100.00;102289.16;2597991;36;20072;-71
2021/09/03 06:15:34;;;;;;;37.30;19.42;;;;;;;12.31;100.00;102284.81;2602679;36;20390;-68
2021/09/03 06:18:02;;;;;;;37.10;19.48;;;;;;;12.34;100.00;102281.03;2602278;36;20628;-69
2021/09/03 06:20:30;;;;;;;35.13;19.70;;;;;;;12.39;100.00;102286.94;2599087;31;20030;-72
2021/09/03 06:22:58;;;;;;;37.40;20.47;;;;;;;12.44;100.00;102284.78;2607713;31;20073;-68
2021/09/03 06:25:27;;;;;;;39.25;19.73;;;;;;;12.46;100.00;102284.66;2615261;36;20076;-72
2021/09/03 06:27:55;;;;;;;42.20;19.65;;;;;;;12.60;100.00;102290.78;2615654;31;20058;-68
2021/09/03 06:30:23;;;;;;;32.47;19.10;;;;;;;12.65;100.00;102286.84;2615975;36;20531;-67
2021/09/03 06:32:54;;;;;;;33.42;18.92;;;;;;;12.67;100.00;102293.84;2616102;36;20129;-70
2021/09/03 06:35:22;;;;;;;38.30;19.70;;;;;;;12.75;100.00;102285.16;2614736;36;20161;-69
2021/09/03 06:37:50;;;;;;;35.65;19.17;;;;;;;12.82;100.00;102282.88;2616555;36;20062;-69
2021/09/03 06:40:19;;;;;;;33.92;19.98;;;;;;;12.99;100.00;102289.72;2616972;36;20073;-67
2021/09/03 06:42:47;;;;;;;34.03;19.08;;;;;;;12.97;100.00;102293.41;2616202;36;20034;-70
2021/09/03 06:45:15;;;;;;;39.38;19.05;;;;;;;13.07;100.00;102292.69;2616519;36;20552;-68
2021/09/03 06:47:43;;;;;;;33.13;17.75;;;;;;;13.09;100.00;102288.03;2614861;36;20110;-68
2021/09/03 06:50:14;;;;;;;32.08;17.60;;;;;;;13.20;100.00;102289.91;2614244;36;20262;-68
2021/09/03 06:52:43;;;;;;;30.25;17.83;;;;;;;13.27;100.00;102296.56;2616049;36;20076;-69
2021/09/03 06:55:11;;;;;;;32.58;17.88;;;;;;;13.30;100.00;102294.47;2615159;36;20227;-67
2021/09/03 06:57:40;;;;;;;37.85;19.48;;;;;;;13.40;100.00;102294.66;2616206;31;20030;-68
2021/09/03 07:00:10;;;;;;;29.17;17.23;;;;;;;13.51;100.00;102285.69;2615931;31;20029;-68
2021/09/03 07:02:38;;;;;;;30.00;17.58;;;;;;;13.59;100.00;102291.38;2617202;36;20543;-68
2021/09/03 07:05:09;;;;;;;36.83;17.83;;;;;;;13.66;100.00;102284.50;2616990;36;20080;-68
2021/09/03 07:07:40;;;;;;;30.27;17.58;;;;;;;13.82;100.00;102291.41;2616576;36;20026;-70
2021/09/03 07:10:09;;;;;;;34.65;18.17;;;;;;;13.91;100.00;102287.94;2616841;36;21379;-70
2021/09/03 07:12:38;;;;;;;32.28;17.10;;;;;;;13.94;100.00;102278.72;2617405;36;20414;-69
2021/09/03 07:15:08;;;;;;;32.03;17.05;;;;;;;14.04;100.00;102286.97;2617110;36;20641;-71
2021/09/03 07:17:37;;;;;;;28.95;18.30;;;;;;;14.12;100.00;102273.66;2617198;36;20034;-67
2021/09/03 07:20:05;;;;;;;31.45;18.10;;;;;;;14.26;100.00;102275.25;2616475;36;20033;-69
2021/09/03 07:22:34;;;;;;;34.72;18.42;;;;;;;14.29;100.00;102277.72;2615931;36;20168;-69
2021/09/03 07:25:05;;;;;;;35.20;17.00;;;;;;;14.51;100.00;102274.09;2616621;36;20165;-69
2021/09/03 07:27:33;;;;;;;29.83;16.63;;;;;;;14.61;100.00;102272.38;2616686;36;20058;-72
2021/09/03 07:30:01;;;;;;;27.67;15.93;;;;;;;14.67;100.00;102263.72;2616227;36;20125;-69
2021/09/03 07:32:29;;;;;;;28.75;16.02;;;;;;;14.75;100.00;102259.50;2616976;36;20625;-71
2021/09/03 07:34:57;;;;;;;29.00;16.00;;;;;;;14.87;100.00;102255.78;2616708;36;20593;-68
2021/09/03 07:37:25;;;;;;;26.67;15.80;;;;;;;15.06;100.00;102261.34;2616127;36;20141;-68
2021/09/03 07:39:54;;;;;;;26.27;16.25;;;;;;;15.14;100.00;102263.41;2617594;31;20515;-69
2021/09/03 07:42:24;;;;;;;34.38;15.38;;;;;;;15.15;100.00;102261.53;2616279;36;20035;-70
2021/09/03 07:44:53;;;;;;;28.77;14.30;;;;;;;15.27;100.00;102248.78;2616531;36;20547;-70
2021/09/03 07:47:21;;;;;;;26.95;14.25;;;;;;;15.39;100.00;102251.28;2616957;31;20704;-69
2021/09/03 07:49:49;;;;;;;29.00;15.65;;;;;;;15.39;100.00;102248.56;2615883;36;20126;-69
2021/09/03 07:52:17;;;;;;;27.50;15.68;;;;;;;15.54;100.00;102253.66;2616286;36;20181;-70
2021/09/03 07:54:46;;;;;;;28.27;14.90;;;;;;;15.67;100.00;102243.44;2617198;36;20074;-71
2021/09/03 07:57:14;;;;;;;24.55;14.57;;;;;;;15.64;100.00;102243.72;2616249;31;20034;-69
2021/09/03 07:59:45;;;;;;;24.37;14.57;;;;;;;15.80;100.00;102236.94;2616943;36;20046;-69
2021/09/03 08:02:13;;;;;;;26.02;14.55;;;;;;;15.99;100.00;102228.00;2616598;36;20394;-69
2021/09/03 08:04:41;;;;;;;24.50;15.23;;;;;;;16.08;100.00;102238.06;2616786;36;20539;-69
2021/09/03 08:07:09;;;;;;;27.42;15.18;;;;;;;16.19;100.00;102228.94;2616768;36;20691;-68
2021/09/03 08:09:38;;;;;;;22.75;14.13;;;;;;;16.34;100.00;102235.69;2616886;36;20034;-70
2021/09/03 08:12:07;;;;;;;36.22;16.17;;;;;;;16.41;100.00;102225.94;2615909;36;20102;-69
2021/09/03 08:14:35;;;;;;;26.83;16.40;;;;;;;16.50;100.00;102226.13;2613980;36;20529;-68
2021/09/03 08:17:07;;;;;;;26.80;16.23;;;;;;;16.61;100.00;102226.00;2615434;36;20030;-70
2021/09/03 08:19:35;;;;;;;29.90;16.58;;;;;;;16.87;100.00;102223.59;2617156;36;20403;-69
2021/09/03 08:22:03;;;;;;;30.13;16.13;;;;;;;16.90;100.00;102225.13;2616370;36;20073;-70
2021/09/03 08:24:31;;;;;;;27.90;15.80;;;;;;;17.01;100.00;102230.44;2616170;36;20118;-70
2021/09/03 08:27:00;;;;;;;26.37;15.53;;;;;;;17.18;100.00;102226.09;2617379;31;20511;-70
2021/09/03 08:29:28;;;;;;;24.33;15.40;;;;;;;17.36;100.00;102234.38;2616551;36;20026;-67
2021/09/03 08:31:56;;;;;;;21.93;16.00;;;;;;;17.41;100.00;102229.34;2616947;36;20419;-68
2021/09/03 08:34:27;;;;;;;32.17;17.45;;;;;;;17.32;100.00;102224.78;2616568;36;20125;-69
2021/09/03 08:36:55;;;;;;;30.40;15.63;;;;;;;17.54;100.00;102228.19;2616578;36;20121;-69
2021/09/03 08:39:24;;;;;;;26.57;15.07;;;;;;;17.65;100.00;102230.69;2616407;36;20141;-68
2021/09/03 08:41:53;;;;;;;26.50;14.93;;;;;;;17.80;100.00;102236.50;2616114;36;20177;-67
2021/09/03 08:44:21;;;;;;;25.95;16.02;;;;;;;17.98;100.00;102223.00;2616753;36;20390;-70
2021/09/03 08:46:50;;;;;;;26.38;16.13;;;;;;;18.26;100.00;102222.97;2616706;36;20106;-69
2021/09/03 08:49:19;;;;;;;25.00;14.23;;;;;;;18.44;100.00;102231.16;2616773;36;20049;-68
2021/09/03 08:51:50;;;;;;;21.88;14.30;;;;;;;18.44;100.00;102231.16;2616609;36;20092;-73
2021/09/03 08:54:18;;;;;;;26.55;15.65;;;;;;;18.53;100.00;102230.22;2616244;36;20531;-69
2021/09/03 08:56:46;;;;;;;25.83;14.83;;;;;;;18.60;100.00;102233.22;2615526;36;20121;-70
2021/09/03 08:59:15;;;;;;;27.47;14.60;;;;;;;18.63;100.00;102233.75;2616604;36;20426;-68
2021/09/03 09:01:43;;;;;;;25.73;14.27;;;;;;;18.68;100.00;102230.53;2617636;31;20597;-69
2021/09/03 09:04:14;;;;;;;22.45;13.40;;;;;;;18.60;100.00;102230.47;2617929;31;20487;-68
2021/09/03 09:07:05;;;;;;;23.67;15.05;;;;;;;18.62;100.00;102236.63;2617539;36;20063;-68
2021/09/03 09:09:34;;;;;;;26.33;15.27;;;;;;;18.70;100.00;102239.44;2615429;36;20121;-68
2021/09/03 09:12:07;;;;;;;25.98;14.93;;;;;;;18.70;100.00;102231.25;2615531;36;20076;-67
2021/09/03 09:15:03;;;;;;;24.90;13.38;;;;;;;18.80;100.00;102229.31;2614982;36;20110;-67
2021/09/03 09:17:33;;;;;;;23.05;13.10;;;;;;;19.03;100.00;102235.13;2614817;36;20034;-71
2021/09/03 09:20:02;;;;;;;20.85;13.35;;;;;;;19.12;100.00;102235.22;2616778;36;20057;-68
2021/09/03 09:22:51;;;;;;;;;;;;;;;19.12;100.00;102244.25;2616488;36;20096;-68
2021/09/03 09:25:23;;;;;;;23.52;14.10;;;;;;;19.41;100.00;102243.09;2617132;36;19997;-69
2021/09/03 09:27:53;;;;;;;25.77;14.50;;;;;;;19.37;100.00;102247.16;2616675;36;20149;-68
2021/09/03 09:30:23;;;;;;;22.63;13.70;;;;;;;19.53;100.00;102236.34;2616378;36;20038;-71
2021/09/03 09:33:13;;;;;;;23.52;13.82;;;;;;;19.42;100.00;102245.66;2614867;36;20077;-68
2021/09/03 09:35:48;;;;;;;21.75;13.43;;;;;;;19.49;100.00;102240.41;2616464;36;20022;-69
2021/09/03 09:38:21;;;;;;;22.30;14.00;;;;;;;19.76;100.00;102238.53;2616702;36;20082;-72
2021/09/03 09:40:52;;;;;;;24.98;12.95;;;;;;;19.65;100.00;102230.59;2615369;36;20022;-68
2021/09/03 09:43:29;;;;;;;25.50;13.52;;;;;;;19.63;100.00;102240.84;2617228;36;20035;-71
2021/09/03 09:46:13;;;;;;;20.98;13.52;;;;;;;19.67;100.00;102231.28;2617250;36;20600;-69
2021/09/03 09:49:01;;;;;;;26.08;13.85;;;;;;;19.83;100.00;102222.34;2616931;36;20057;-68
2021/09/03 09:51:32;;;;;;;26.13;13.80;;;;;;;19.92;100.00;102213.16;2616979;36;20023;-68
2021/09/03 09:54:04;;;;;;;22.55;13.07;;;;;;;19.83;100.00;102220.50;2617362;36;20042;-71
2021/09/03 09:56:34;;;;;;;21.52;13.27;;;;;;;20.16;100.00;102215.13;2616166;36;20169;-68
2021/09/03 09:59:04;;;;;;;22.35;13.07;;;;;;;20.19;100.00;102213.94;2617072;36;20114;-68
2021/09/03 10:04:09;;;;;;;18.77;12.68;;;;;;;20.16;100.00;102215.13;2614965;36;20022;-69
2021/09/03 10:06:39;;;;;;;25.25;13.10;;;;;;;20.18;100.00;102202.13;2616223;36;20061;-68
2021/09/03 10:09:12;;;;;;;22.38;12.65;;;;;;;20.29;100.00;102199.09;2615840;36;20042;-70
2021/09/03 10:11:42;;;;;;;24.30;13.90;;;;;;;20.24;100.00;102198.75;2616334;36;20027;-68
2021/09/03 10:14:14;;;;;;;22.73;12.68;;;;;;;20.34;100.00;102198.59;2615955;36;20077;-71
2021/09/03 10:16:42;;;;;;;22.88;14.30;;;;;;;20.42;100.00;102205.94;2616178;36;20558;-70
2021/09/03 10:19:11;;;;;;;26.27;14.18;;;;;;;20.13;100.00;102199.91;2616489;36;20084;-70
2021/09/03 10:21:40;;;;;;;;;;;;;;;20.31;100.00;102191.56;2616695;36;20030;-70
2021/09/03 10:24:14;;;;;;;19.58;13.23;;;;;;;20.38;100.00;102191.75;2616530;36;20049;-68
2021/09/03 10:26:44;;;;;;;20.98;13.65;;;;;;;20.48;100.00;102191.63;2616929;36;20026;-67
2021/09/03 10:29:22;;;;;;;23.85;13.90;;;;;;;20.63;100.00;102189.91;2616773;36;20073;-67
2021/09/03 10:32:26;;;;;;;21.10;12.57;;;;;;;20.64;100.00;102179.81;2616778;36;20082;-69
2021/09/03 10:35:00;;;;;;;22.27;13.40;;;;;;;20.87;100.00;102187.38;2616493;36;20019;-68
2021/09/03 10:37:47;;;;;;;23.25;12.52;;;;;;;21.12;100.00;102182.72;2617085;36;20078;-67
2021/09/03 10:40:41;;;;;;;25.45;13.27;;;;;;;20.99;100.00;102186.88;2615973;36;20086;-68
2021/09/03 10:43:09;;;;;;;20.60;11.55;;;;;;;21.08;100.00;102193.19;2616944;36;20030;-71
2021/09/03 10:45:42;;;;;;;23.00;12.45;;;;;;;21.15;100.00;102185.13;2616179;36;20089;-68
2021/09/03 10:48:18;;;;;;;21.98;12.20;;;;;;;20.97;100.00;102180.69;2616542;36;20038;-68
2021/09/03 10:50:53;;;;;;;18.15;11.25;;;;;;;21.26;100.00;102179.28;2616873;36;20034;-67
2021/09/03 10:53:24;;;;;;;22.77;11.23;;;;;;;21.41;100.00;102175.81;2616070;36;20038;-70
2021/09/03 10:56:21;;;;;;;18.00;10.60;;;;;;;21.49;100.00;102170.31;2616011;36;20026;-68
2021/09/03 10:58:58;;;;;;;17.92;11.00;;;;;;;21.23;100.00;102168.69;2616072;36;20038;-67
2021/09/03 11:01:31;;;;;;;22.27;11.90;;;;;;;21.41;100.00;102164.88;2615760;36;20540;-71
2021/09/03 11:04:02;;;;;;;20.50;12.02;;;;;;;21.51;100.00;102163.66;2616783;36;20022;-68
2021/09/03 11:06:33;;;;;;;23.85;12.10;;;;;;;21.44;100.00;102157.13;2616328;36;20049;-68
2021/09/03 11:09:03;;;;;;;20.20;11.52;;;;;;;21.60;100.00;102156.25;2616542;36;20102;-69
2021/09/03 11:11:35;;;;;;;18.67;11.00;;;;;;;21.73;100.00;102157.56;2616397;36;20058;-68
2021/09/03 11:14:07;;;;;;;19.17;11.35;;;;;;;21.98;100.00;102152.81;2612842;36;20154;-68
2021/09/03 11:16:38;;;;;;;21.55;11.00;;;;;;;22.27;100.00;102157.59;2613733;36;20185;-68
2021/09/03 11:19:09;;;;;;;19.38;11.15;;;;;;;22.17;100.00;102155.09;2613466;31;20039;-68
2021/09/03 11:21:41;;;;;;;20.13;11.52;;;;;;;21.97;100.00;102148.38;2614395;36;20150;-69